createdAt,value
2022-09-09T00:08:59.374Z,66.22
2022-09-09T00:19:30.309Z,68.09
2022-09-09T00:29:54.922Z,67.06
2022-09-09T00:40:01.839Z,66.84
2022-09-09T00:50:15.043Z,66.87
2022-09-09T01:00:20.188Z,67.74
2022-09-09T01:10:39.955Z,68.22
2022-09-09T01:21:05.312Z,68.21
2022-09-09T01:31:09.310Z,68.71
2022-09-09T01:41:17.945Z,69.19
2022-09-09T01:51:37.112Z,69.38
2022-09-09T02:02:18.300Z,68.96
2022-09-09T02:12:31.702Z,69.30
2022-09-09T02:22:41.096Z,68.71
2022-09-09T02:32:45.089Z,69.33
2022-09-09T02:42:50.743Z,68.72
2022-09-09T02:53:25.731Z,69.01
2022-09-09T03:03:28.237Z,68.93
2022-09-09T03:13:31.779Z,69.03
2022-09-09T03:23:33.868Z,69.09
2022-09-09T03:33:39.706Z,69.02
2022-09-09T03:43:42.941Z,69.65
2022-09-09T03:53:45.335Z,70.44
2022-09-09T04:03:47.462Z,70.58
2022-09-09T04:13:50.296Z,70.87
2022-09-09T04:23:53.693Z,70.08
2022-09-09T04:33:56.010Z,70.03
2022-09-09T04:43:57.989Z,70.12
2022-09-09T04:53:59.953Z,70.67
2022-09-09T05:04:02.182Z,71.22
2022-09-09T05:14:04.359Z,70.68
2022-09-09T05:24:07.214Z,70.55
2022-09-09T05:34:09.983Z,69.87
2022-09-09T05:44:12.084Z,70.42
2022-09-09T05:54:16.566Z,70.40
2022-09-09T06:04:23.562Z,69.77
2022-09-09T06:14:26.426Z,68.64
2022-09-09T06:24:34.094Z,67.55
2022-09-09T06:34:37.826Z,65.88
2022-09-09T06:44:39.719Z,65.85
2022-09-09T06:54:46.394Z,63.60
2022-09-09T07:04:52.195Z,62.12
2022-09-09T07:14:54.173Z,58.66
2022-09-09T07:24:56.862Z,58.35
2022-09-09T07:34:59.493Z,57.00
2022-09-09T07:45:02.710Z,57.19
2022-09-09T07:55:05.665Z,57.39
2022-09-09T08:05:08.625Z,57.38
2022-09-09T08:15:12.310Z,57.29
2022-09-09T08:25:14.435Z,55.42
2022-09-09T08:35:18.582Z,52.02
2022-09-09T08:45:29.642Z,51.69
2022-09-09T08:55:49.468Z,53.31
2022-09-09T09:06:35.406Z,51.64
2022-09-09T09:16:52.067Z,51.57
2022-09-09T09:26:55.323Z,50.48
2022-09-09T09:36:59.420Z,49.64
2022-09-09T09:47:16.966Z,49.75
2022-09-09T09:57:32.818Z,49.63
2022-09-09T10:07:38.809Z,50.30
2022-09-09T10:17:40.552Z,49.67
2022-09-09T10:27:55.480Z,49.97
2022-09-09T10:38:15.214Z,50.01
2022-09-09T10:48:32.663Z,51.40
2022-09-09T10:58:43.713Z,49.76
2022-09-09T11:08:46.800Z,48.11
2022-09-09T11:18:48.571Z,48.68
2022-09-09T11:29:15.770Z,47.06
2022-09-09T11:39:45.923Z,47.53
2022-09-09T11:49:48.329Z,46.47
2022-09-09T11:59:54.117Z,47.48
2022-09-09T12:10:05.857Z,45.40
2022-09-09T12:20:27.816Z,45.49
2022-09-09T12:31:11.202Z,45.32
2022-09-09T12:41:27.924Z,45.41
2022-09-09T12:51:33.042Z,46.62
2022-09-09T13:01:34.809Z,46.70
2022-09-09T13:11:43.212Z,46.58
2022-09-09T13:21:45.133Z,51.02
2022-09-09T13:31:47.187Z,52.03
2022-09-09T13:41:49.622Z,48.71
2022-09-09T13:51:55.285Z,50.04
2022-09-09T14:01:58.368Z,49.84
2022-09-09T14:12:00.811Z,51.27
2022-09-09T14:22:05.312Z,50.04
2022-09-09T14:32:10.719Z,49.45
2022-09-09T14:42:15.397Z,50.07
2022-09-09T14:52:17.357Z,48.86
2022-09-09T15:02:19.115Z,50.48
2022-09-09T15:12:21.756Z,50.99
2022-09-09T15:22:25.197Z,51.58
2022-09-09T15:32:26.742Z,52.62
2022-09-09T15:42:28.371Z,56.04
2022-09-09T15:52:30.157Z,56.92
2022-09-09T16:02:32.309Z,56.34
2022-09-09T16:12:33.825Z,56.22
2022-09-09T16:22:35.359Z,55.45
2022-09-09T16:32:40.842Z,54.88
2022-09-09T16:42:43.777Z,57.90
2022-09-09T16:52:45.443Z,61.73
2022-09-09T17:02:47.003Z,62.90
2022-09-09T17:12:48.651Z,63.09
2022-09-09T17:22:50.363Z,65.70
2022-09-09T17:32:52.133Z,65.20
2022-09-09T17:42:53.734Z,65.95
2022-09-09T17:52:57.836Z,65.41
2022-09-09T18:03:00.083Z,63.95
2022-09-09T18:13:02.251Z,62.62
2022-09-09T18:23:04.047Z,62.20
2022-09-09T18:33:05.856Z,61.92
2022-09-09T18:43:08.447Z,63.09
2022-09-09T18:53:10.755Z,63.36
2022-09-09T19:03:21.379Z,62.99
2022-09-09T19:13:27.374Z,63.68
2022-09-09T19:23:31.135Z,64.78
2022-09-09T19:33:33.492Z,65.63
2022-09-09T19:43:35.604Z,66.22
2022-09-09T19:53:46.581Z,66.17
2022-09-09T20:03:51.523Z,67.44
2022-09-09T20:13:54.196Z,67.46
2022-09-09T20:23:56.169Z,68.38
2022-09-09T20:34:17.488Z,67.44
2022-09-09T20:44:24.151Z,67.30
2022-09-09T20:54:30.288Z,66.29
2022-09-09T21:04:32.177Z,66.22
2022-09-09T21:14:33.917Z,64.92
2022-09-09T21:24:36.229Z,65.06
2022-09-09T21:34:38.342Z,65.02
2022-09-09T21:44:40.694Z,65.53
2022-09-09T21:54:43.730Z,65.45
2022-09-09T22:04:45.939Z,65.70
2022-09-09T22:14:48.982Z,66.19
2022-09-09T22:24:50.575Z,66.12
2022-09-09T22:34:52.230Z,65.98
2022-09-09T22:44:53.864Z,66.50
2022-09-09T22:54:56.415Z,67.47
2022-09-09T23:04:59.576Z,68.07
2022-09-09T23:15:01.344Z,67.61
2022-09-09T23:25:06.005Z,67.36
2022-09-09T23:35:08.172Z,67.68
2022-09-09T23:45:10.663Z,67.46
2022-09-09T23:55:12.428Z,67.36
